sensor_id;sensor_type;location;lat;lon;timestamp;P1;durP1;ratioP1;P2;durP2;ratioP2
71238;SDS011;61342;51.442;7.370;2022-09-29T00:00:49;8.03;;;7.07;;
71238;SDS011;61342;51.442;7.370;2022-09-29T00:01:51;10.30;;;7.30;;
71238;SDS011;61342;51.442;7.370;2022-09-29T00:02:51;11.53;;;7.20;;
71238;SDS011;61342;51.442;7.370;2022-09-29T00:03:52;7.47;;;6.77;;
71238;SDS011;61342;51.442;7.370;2022-09-29T00:04:52;8.00;;;7.20;;
71238;SDS011;61342;51.442;7.370;2022-09-29T00:05:53;9.07;;;7.20;;
71238;SDS011;61342;51.442;7.370;2022-09-29T00:06:55;9.23;;;7.47;;
71238;SDS011;61342;51.442;7.370;2022-09-29T00:07:55;8.10;;;7.30;;
71238;SDS011;61342;51.442;7.370;2022-09-29T00:08:56;8.10;;;7.30;;
71238;SDS011;61342;51.442;7.370;2022-09-29T00:09:57;7.73;;;7.03;;
71238;SDS011;61342;51.442;7.370;2022-09-29T00:10:58;7.97;;;7.03;;
71238;SDS011;61342;51.442;7.370;2022-09-29T00:11:58;8.03;;;7.27;;
71238;SDS011;61342;51.442;7.370;2022-09-29T00:12:58;7.77;;;6.97;;
71238;SDS011;61342;51.442;7.370;2022-09-29T00:13:59;10.00;;;7.77;;
71238;SDS011;61342;51.442;7.370;2022-09-29T00:14:59;10.87;;;8.30;;
71238;SDS011;61342;51.442;7.370;2022-09-29T00:16:00;7.93;;;7.13;;
71238;SDS011;61342;51.442;7.370;2022-09-29T00:17:02;8.23;;;7.40;;
71238;SDS011;61342;51.442;7.370;2022-09-29T00:18:03;8.53;;;7.60;;
71238;SDS011;61342;51.442;7.370;2022-09-29T00:19:03;8.20;;;7.40;;
71238;SDS011;61342;51.442;7.370;2022-09-29T00:20:04;8.40;;;7.50;;
71238;SDS011;61342;51.442;7.370;2022-09-29T00:21:06;9.07;;;7.90;;
71238;SDS011;61342;51.442;7.370;2022-09-29T00:22:11;9.73;;;7.47;;
71238;SDS011;61342;51.442;7.370;2022-09-29T00:23:11;9.93;;;7.73;;
71238;SDS011;61342;51.442;7.370;2022-09-29T00:24:12;10.33;;;7.97;;
71238;SDS011;61342;51.442;7.370;2022-09-29T00:25:12;8.73;;;7.83;;
71238;SDS011;61342;51.442;7.370;2022-09-29T00:26:14;9.47;;;7.27;;
71238;SDS011;61342;51.442;7.370;2022-09-29T00:27:17;8.70;;;7.83;;
71238;SDS011;61342;51.442;7.370;2022-09-29T00:28:18;12.10;;;7.77;;
71238;SDS011;61342;51.442;7.370;2022-09-29T00:29:18;8.57;;;7.47;;
71238;SDS011;61342;51.442;7.370;2022-09-29T00:30:19;9.43;;;7.87;;
71238;SDS011;61342;51.442;7.370;2022-09-29T00:31:19;8.47;;;7.63;;
71238;SDS011;61342;51.442;7.370;2022-09-29T00:32:20;9.70;;;7.97;;
71238;SDS011;61342;51.442;7.370;2022-09-29T00:33:20;8.47;;;7.67;;
71238;SDS011;61342;51.442;7.370;2022-09-29T00:34:20;9.10;;;7.83;;
71238;SDS011;61342;51.442;7.370;2022-09-29T00:35:21;8.97;;;7.90;;
71238;SDS011;61342;51.442;7.370;2022-09-29T00:36:21;8.77;;;7.67;;
71238;SDS011;61342;51.442;7.370;2022-09-29T00:37:22;11.03;;;7.80;;
71238;SDS011;61342;51.442;7.370;2022-09-29T00:38:23;10.07;;;8.43;;
71238;SDS011;61342;51.442;7.370;2022-09-29T00:39:24;12.43;;;8.77;;
71238;SDS011;61342;51.442;7.370;2022-09-29T00:40:24;9.23;;;8.23;;
71238;SDS011;61342;51.442;7.370;2022-09-29T00:41:26;10.93;;;8.90;;
71238;SDS011;61342;51.442;7.370;2022-09-29T00:42:28;9.43;;;8.40;;
71238;SDS011;61342;51.442;7.370;2022-09-29T00:46:18;9.80;;;8.80;;
71238;SDS011;61342;51.442;7.370;2022-09-29T00:47:27;9.93;;;8.67;;
71238;SDS011;61342;51.442;7.370;2022-09-29T00:48:29;12.70;;;9.43;;
71238;SDS011;61342;51.442;7.370;2022-09-29T00:49:39;15.43;;;8.23;;
71238;SDS011;61342;51.442;7.370;2022-09-29T00:50:46;9.63;;;8.73;;
71238;SDS011;61342;51.442;7.370;2022-09-29T00:53:19;11.17;;;8.80;;
71238;SDS011;61342;51.442;7.370;2022-09-29T00:54:22;10.43;;;9.00;;
71238;SDS011;61342;51.442;7.370;2022-09-29T00:55:32;10.07;;;8.50;;
71238;SDS011;61342;51.442;7.370;2022-09-29T00:56:38;9.80;;;8.73;;
71238;SDS011;61342;51.442;7.370;2022-09-29T00:57:52;9.57;;;8.57;;
71238;SDS011;61342;51.442;7.370;2022-09-29T00:58:53;11.23;;;9.00;;
71238;SDS011;61342;51.442;7.370;2022-09-29T01:00:02;11.93;;;9.40;;
71238;SDS011;61342;51.442;7.370;2022-09-29T01:01:09;10.40;;;8.93;;
71238;SDS011;61342;51.442;7.370;2022-09-29T01:02:12;11.17;;;9.67;;
71238;SDS011;61342;51.442;7.370;2022-09-29T01:03:14;10.27;;;8.90;;
71238;SDS011;61342;51.442;7.370;2022-09-29T01:04:19;10.47;;;9.23;;
71238;SDS011;61342;51.442;7.370;2022-09-29T01:05:26;12.17;;;9.00;;
71238;SDS011;61342;51.442;7.370;2022-09-29T01:06:33;10.07;;;8.90;;
71238;SDS011;61342;51.442;7.370;2022-09-29T01:07:37;9.83;;;8.80;;
71238;SDS011;61342;51.442;7.370;2022-09-29T01:08:40;10.93;;;8.60;;
71238;SDS011;61342;51.442;7.370;2022-09-29T01:09:44;9.33;;;8.43;;
71238;SDS011;61342;51.442;7.370;2022-09-29T01:10:45;10.07;;;9.00;;
71238;SDS011;61342;51.442;7.370;2022-09-29T01:11:48;9.57;;;8.43;;
71238;SDS011;61342;51.442;7.370;2022-09-29T01:12:51;10.67;;;8.80;;
71238;SDS011;61342;51.442;7.370;2022-09-29T01:13:52;10.43;;;8.47;;
71238;SDS011;61342;51.442;7.370;2022-09-29T01:14:56;11.27;;;8.90;;
71238;SDS011;61342;51.442;7.370;2022-09-29T01:15:56;8.83;;;7.93;;
71238;SDS011;61342;51.442;7.370;2022-09-29T01:16:57;9.63;;;8.60;;
71238;SDS011;61342;51.442;7.370;2022-09-29T01:17:58;9.50;;;8.50;;
71238;SDS011;61342;51.442;7.370;2022-09-29T01:18:59;11.33;;;9.17;;
71238;SDS011;61342;51.442;7.370;2022-09-29T01:20:11;10.63;;;8.90;;
71238;SDS011;61342;51.442;7.370;2022-09-29T01:21:18;10.10;;;8.67;;
71238;SDS011;61342;51.442;7.370;2022-09-29T01:23:45;11.03;;;8.83;;
71238;SDS011;61342;51.442;7.370;2022-09-29T01:26:06;10.33;;;8.23;;
71238;SDS011;61342;51.442;7.370;2022-09-29T01:31:16;10.20;;;9.10;;
71238;SDS011;61342;51.442;7.370;2022-09-29T01:32:48;12.17;;;8.57;;
71238;SDS011;61342;51.442;7.370;2022-09-29T01:34:12;10.20;;;8.90;;
71238;SDS011;61342;51.442;7.370;2022-09-29T01:36:55;11.27;;;9.10;;
71238;SDS011;61342;51.442;7.370;2022-09-29T01:40:33;10.00;;;8.97;;
71238;SDS011;61342;51.442;7.370;2022-09-29T01:41:49;10.37;;;9.10;;
71238;SDS011;61342;51.442;7.370;2022-09-29T01:43:00;10.17;;;9.10;;
71238;SDS011;61342;51.442;7.370;2022-09-29T01:45:22;15.97;;;10.83;;
71238;SDS011;61342;51.442;7.370;2022-09-29T01:46:26;10.53;;;9.23;;
71238;SDS011;61342;51.442;7.370;2022-09-29T01:47:33;18.47;;;9.70;;
71238;SDS011;61342;51.442;7.370;2022-09-29T01:48:41;11.27;;;9.97;;
71238;SDS011;61342;51.442;7.370;2022-09-29T01:49:49;11.80;;;9.67;;
71238;SDS011;61342;51.442;7.370;2022-09-29T01:50:56;12.83;;;10.13;;
71238;SDS011;61342;51.442;7.370;2022-09-29T01:52:02;11.50;;;10.13;;
71238;SDS011;61342;51.442;7.370;2022-09-29T01:53:09;11.97;;;10.40;;
71238;SDS011;61342;51.442;7.370;2022-09-29T01:54:16;11.13;;;10.03;;
71238;SDS011;61342;51.442;7.370;2022-09-29T01:55:22;11.73;;;10.53;;
71238;SDS011;61342;51.442;7.370;2022-09-29T01:56:27;12.27;;;10.23;;
71238;SDS011;61342;51.442;7.370;2022-09-29T01:57:45;12.83;;;10.03;;
71238;SDS011;61342;51.442;7.370;2022-09-29T01:58:48;10.60;;;9.50;;
71238;SDS011;61342;51.442;7.370;2022-09-29T02:00:12;14.53;;;10.63;;
71238;SDS011;61342;51.442;7.370;2022-09-29T02:01:15;11.57;;;10.07;;
71238;SDS011;61342;51.442;7.370;2022-09-29T02:02:20;12.30;;;11.00;;
71238;SDS011;61342;51.442;7.370;2022-09-29T02:03:28;12.60;;;10.20;;
71238;SDS011;61342;51.442;7.370;2022-09-29T02:04:42;11.97;;;9.70;;
71238;SDS011;61342;51.442;7.370;2022-09-29T02:05:53;11.03;;;9.83;;
71238;SDS011;61342;51.442;7.370;2022-09-29T02:07:06;15.00;;;10.10;;
71238;SDS011;61342;51.442;7.370;2022-09-29T02:08:35;11.57;;;10.37;;
71238;SDS011;61342;51.442;7.370;2022-09-29T02:09:46;11.23;;;10.13;;
71238;SDS011;61342;51.442;7.370;2022-09-29T02:11:09;14.27;;;10.70;;
71238;SDS011;61342;51.442;7.370;2022-09-29T02:12:13;11.63;;;9.87;;
71238;SDS011;61342;51.442;7.370;2022-09-29T02:13:22;12.00;;;9.87;;
71238;SDS011;61342;51.442;7.370;2022-09-29T02:14:27;12.50;;;10.47;;
71238;SDS011;61342;51.442;7.370;2022-09-29T02:15:34;12.07;;;9.77;;
71238;SDS011;61342;51.442;7.370;2022-09-29T02:16:40;12.10;;;9.77;;
71238;SDS011;61342;51.442;7.370;2022-09-29T02:17:47;11.10;;;9.90;;
71238;SDS011;61342;51.442;7.370;2022-09-29T02:18:52;11.50;;;10.30;;
71238;SDS011;61342;51.442;7.370;2022-09-29T02:19:56;11.33;;;10.20;;
71238;SDS011;61342;51.442;7.370;2022-09-29T02:21:00;12.73;;;10.70;;
71238;SDS011;61342;51.442;7.370;2022-09-29T02:22:00;12.37;;;9.83;;
71238;SDS011;61342;51.442;7.370;2022-09-29T02:23:01;16.33;;;10.63;;
71238;SDS011;61342;51.442;7.370;2022-09-29T02:24:02;11.90;;;10.03;;
71238;SDS011;61342;51.442;7.370;2022-09-29T02:25:03;11.53;;;9.57;;
71238;SDS011;61342;51.442;7.370;2022-09-29T02:26:04;11.40;;;10.03;;
71238;SDS011;61342;51.442;7.370;2022-09-29T02:27:05;12.60;;;10.53;;
71238;SDS011;61342;51.442;7.370;2022-09-29T02:28:05;12.20;;;10.33;;
71238;SDS011;61342;51.442;7.370;2022-09-29T02:29:06;11.77;;;10.53;;
71238;SDS011;61342;51.442;7.370;2022-09-29T02:30:08;10.73;;;9.50;;
71238;SDS011;61342;51.442;7.370;2022-09-29T02:31:09;11.27;;;9.50;;
71238;SDS011;61342;51.442;7.370;2022-09-29T02:32:10;12.57;;;9.90;;
71238;SDS011;61342;51.442;7.370;2022-09-29T02:33:19;12.23;;;9.30;;
71238;SDS011;61342;51.442;7.370;2022-09-29T02:34:23;11.07;;;9.43;;
71238;SDS011;61342;51.442;7.370;2022-09-29T02:35:24;10.50;;;9.40;;
71238;SDS011;61342;51.442;7.370;2022-09-29T02:39:30;9.97;;;8.80;;
71238;SDS011;61342;51.442;7.370;2022-09-29T02:40:46;11.23;;;8.93;;
71238;SDS011;61342;51.442;7.370;2022-09-29T02:41:56;11.07;;;9.13;;
71238;SDS011;61342;51.442;7.370;2022-09-29T02:44:50;10.30;;;9.23;;
71238;SDS011;61342;51.442;7.370;2022-09-29T02:48:14;9.63;;;8.70;;
71238;SDS011;61342;51.442;7.370;2022-09-29T02:51:35;10.70;;;8.97;;
71238;SDS011;61342;51.442;7.370;2022-09-29T02:55:30;9.13;;;8.23;;
71238;SDS011;61342;51.442;7.370;2022-09-29T02:57:40;9.53;;;8.53;;
71238;SDS011;61342;51.442;7.370;2022-09-29T02:59:06;11.77;;;8.37;;
71238;SDS011;61342;51.442;7.370;2022-09-29T03:00:14;12.37;;;8.70;;
71238;SDS011;61342;51.442;7.370;2022-09-29T03:01:16;9.67;;;8.60;;
71238;SDS011;61342;51.442;7.370;2022-09-29T03:02:22;11.77;;;9.27;;
71238;SDS011;61342;51.442;7.370;2022-09-29T03:03:24;9.77;;;8.73;;
71238;SDS011;61342;51.442;7.370;2022-09-29T03:04:25;12.70;;;9.03;;
71238;SDS011;61342;51.442;7.370;2022-09-29T03:05:26;10.67;;;9.53;;
71238;SDS011;61342;51.442;7.370;2022-09-29T03:06:27;12.73;;;9.27;;
71238;SDS011;61342;51.442;7.370;2022-09-29T03:07:27;14.23;;;9.73;;
71238;SDS011;61342;51.442;7.370;2022-09-29T03:08:27;10.57;;;9.50;;
71238;SDS011;61342;51.442;7.370;2022-09-29T03:09:28;11.37;;;9.50;;
71238;SDS011;61342;51.442;7.370;2022-09-29T03:10:28;10.97;;;9.47;;
71238;SDS011;61342;51.442;7.370;2022-09-29T03:11:28;9.97;;;8.87;;
71238;SDS011;61342;51.442;7.370;2022-09-29T03:12:29;10.33;;;8.93;;
71238;SDS011;61342;51.442;7.370;2022-09-29T03:13:29;10.80;;;9.30;;
71238;SDS011;61342;51.442;7.370;2022-09-29T03:14:30;11.13;;;9.23;;
71238;SDS011;61342;51.442;7.370;2022-09-29T03:15:30;11.00;;;8.80;;
71238;SDS011;61342;51.442;7.370;2022-09-29T03:16:31;10.13;;;9.13;;
71238;SDS011;61342;51.442;7.370;2022-09-29T03:17:32;12.27;;;9.60;;
71238;SDS011;61342;51.442;7.370;2022-09-29T03:18:32;10.90;;;9.03;;
71238;SDS011;61342;51.442;7.370;2022-09-29T03:19:33;10.77;;;8.87;;
71238;SDS011;61342;51.442;7.370;2022-09-29T03:20:33;10.30;;;9.20;;
71238;SDS011;61342;51.442;7.370;2022-09-29T03:21:33;10.50;;;9.50;;
71238;SDS011;61342;51.442;7.370;2022-09-29T03:22:34;10.03;;;8.90;;
71238;SDS011;61342;51.442;7.370;2022-09-29T03:23:34;11.37;;;9.40;;
71238;SDS011;61342;51.442;7.370;2022-09-29T03:24:35;10.23;;;9.07;;
71238;SDS011;61342;51.442;7.370;2022-09-29T03:25:35;13.30;;;9.10;;
71238;SDS011;61342;51.442;7.370;2022-09-29T03:26:35;10.40;;;9.40;;
71238;SDS011;61342;51.442;7.370;2022-09-29T03:27:36;11.20;;;8.97;;
71238;SDS011;61342;51.442;7.370;2022-09-29T03:28:37;10.77;;;9.63;;
71238;SDS011;61342;51.442;7.370;2022-09-29T03:29:38;11.13;;;8.93;;
71238;SDS011;61342;51.442;7.370;2022-09-29T03:30:38;10.17;;;9.17;;
71238;SDS011;61342;51.442;7.370;2022-09-29T03:31:39;10.47;;;9.07;;
71238;SDS011;61342;51.442;7.370;2022-09-29T03:32:39;9.43;;;8.53;;
71238;SDS011;61342;51.442;7.370;2022-09-29T03:33:40;10.20;;;9.13;;
71238;SDS011;61342;51.442;7.370;2022-09-29T03:34:40;12.57;;;9.83;;
71238;SDS011;61342;51.442;7.370;2022-09-29T03:35:40;12.77;;;9.50;;
71238;SDS011;61342;51.442;7.370;2022-09-29T03:36:41;12.83;;;8.80;;
71238;SDS011;61342;51.442;7.370;2022-09-29T03:37:41;10.07;;;9.07;;
71238;SDS011;61342;51.442;7.370;2022-09-29T03:38:41;13.73;;;9.70;;
71238;SDS011;61342;51.442;7.370;2022-09-29T03:39:44;11.10;;;9.67;;
71238;SDS011;61342;51.442;7.370;2022-09-29T03:40:44;10.43;;;9.20;;
71238;SDS011;61342;51.442;7.370;2022-09-29T03:41:45;11.83;;;9.40;;
71238;SDS011;61342;51.442;7.370;2022-09-29T03:42:45;10.73;;;9.63;;
71238;SDS011;61342;51.442;7.370;2022-09-29T03:43:46;10.53;;;9.33;;
71238;SDS011;61342;51.442;7.370;2022-09-29T03:44:47;11.17;;;9.80;;
71238;SDS011;61342;51.442;7.370;2022-09-29T03:45:47;10.73;;;9.33;;
71238;SDS011;61342;51.442;7.370;2022-09-29T03:46:48;10.90;;;9.80;;
71238;SDS011;61342;51.442;7.370;2022-09-29T03:47:49;12.10;;;9.47;;
71238;SDS011;61342;51.442;7.370;2022-09-29T03:48:50;11.97;;;9.27;;
71238;SDS011;61342;51.442;7.370;2022-09-29T03:49:50;9.80;;;8.87;;
71238;SDS011;61342;51.442;7.370;2022-09-29T03:50:51;10.63;;;9.53;;
71238;SDS011;61342;51.442;7.370;2022-09-29T03:51:52;9.80;;;8.80;;
71238;SDS011;61342;51.442;7.370;2022-09-29T03:52:53;13.77;;;9.63;;
71238;SDS011;61342;51.442;7.370;2022-09-29T03:53:53;11.27;;;10.07;;
71238;SDS011;61342;51.442;7.370;2022-09-29T03:54:54;18.03;;;14.50;;
71238;SDS011;61342;51.442;7.370;2022-09-29T03:55:54;45.23;;;32.70;;
71238;SDS011;61342;51.442;7.370;2022-09-29T03:56:55;31.37;;;21.83;;
71238;SDS011;61342;51.442;7.370;2022-09-29T03:57:55;21.43;;;14.77;;
71238;SDS011;61342;51.442;7.370;2022-09-29T03:58:55;16.33;;;13.40;;
71238;SDS011;61342;51.442;7.370;2022-09-29T03:59:59;12.27;;;10.50;;
71238;SDS011;61342;51.442;7.370;2022-09-29T04:00:59;10.70;;;9.43;;
71238;SDS011;61342;51.442;7.370;2022-09-29T04:02:00;11.67;;;8.77;;
71238;SDS011;61342;51.442;7.370;2022-09-29T04:03:01;9.70;;;8.47;;
71238;SDS011;61342;51.442;7.370;2022-09-29T04:04:02;9.97;;;8.47;;
71238;SDS011;61342;51.442;7.370;2022-09-29T04:05:04;9.47;;;8.23;;
71238;SDS011;61342;51.442;7.370;2022-09-29T04:06:05;9.83;;;8.00;;
71238;SDS011;61342;51.442;7.370;2022-09-29T04:07:05;9.60;;;8.40;;
71238;SDS011;61342;51.442;7.370;2022-09-29T04:08:06;9.83;;;8.80;;
71238;SDS011;61342;51.442;7.370;2022-09-29T04:09:07;11.33;;;8.60;;
71238;SDS011;61342;51.442;7.370;2022-09-29T04:10:08;10.23;;;8.33;;
71238;SDS011;61342;51.442;7.370;2022-09-29T04:11:08;10.67;;;9.20;;
71238;SDS011;61342;51.442;7.370;2022-09-29T04:12:09;12.07;;;8.60;;
71238;SDS011;61342;51.442;7.370;2022-09-29T04:13:09;10.17;;;8.73;;
71238;SDS011;61342;51.442;7.370;2022-09-29T04:14:09;10.73;;;8.60;;
71238;SDS011;61342;51.442;7.370;2022-09-29T04:15:10;12.37;;;8.90;;
71238;SDS011;61342;51.442;7.370;2022-09-29T04:16:10;10.03;;;9.00;;
71238;SDS011;61342;51.442;7.370;2022-09-29T04:17:10;9.77;;;8.80;;
71238;SDS011;61342;51.442;7.370;2022-09-29T04:18:11;10.30;;;8.70;;
71238;SDS011;61342;51.442;7.370;2022-09-29T04:19:11;9.60;;;8.40;;
71238;SDS011;61342;51.442;7.370;2022-09-29T04:20:12;9.93;;;8.93;;
71238;SDS011;61342;51.442;7.370;2022-09-29T04:21:12;10.20;;;9.13;;
71238;SDS011;61342;51.442;7.370;2022-09-29T04:22:15;9.80;;;8.80;;
71238;SDS011;61342;51.442;7.370;2022-09-29T04:23:17;10.67;;;9.50;;
71238;SDS011;61342;51.442;7.370;2022-09-29T04:24:18;9.87;;;8.87;;
71238;SDS011;61342;51.442;7.370;2022-09-29T04:25:18;9.87;;;8.60;;
71238;SDS011;61342;51.442;7.370;2022-09-29T04:26:18;9.67;;;8.67;;
71238;SDS011;61342;51.442;7.370;2022-09-29T04:27:21;13.03;;;9.17;;
71238;SDS011;61342;51.442;7.370;2022-09-29T04:28:22;13.47;;;8.80;;
71238;SDS011;61342;51.442;7.370;2022-09-29T04:29:23;10.80;;;9.00;;
71238;SDS011;61342;51.442;7.370;2022-09-29T04:30:24;9.80;;;8.70;;
71238;SDS011;61342;51.442;7.370;2022-09-29T04:31:24;11.70;;;9.27;;
71238;SDS011;61342;51.442;7.370;2022-09-29T04:32:25;10.50;;;9.47;;
71238;SDS011;61342;51.442;7.370;2022-09-29T04:33:28;13.40;;;9.13;;
71238;SDS011;61342;51.442;7.370;2022-09-29T04:34:29;10.40;;;8.70;;
71238;SDS011;61342;51.442;7.370;2022-09-29T04:35:29;12.50;;;10.77;;
71238;SDS011;61342;51.442;7.370;2022-09-29T04:36:29;71.50;;;47.80;;
71238;SDS011;61342;51.442;7.370;2022-09-29T04:37:30;32.57;;;25.17;;
71238;SDS011;61342;51.442;7.370;2022-09-29T04:38:30;21.10;;;16.37;;
71238;SDS011;61342;51.442;7.370;2022-09-29T04:39:30;15.37;;;12.63;;
71238;SDS011;61342;51.442;7.370;2022-09-29T04:40:31;13.40;;;10.10;;
71238;SDS011;61342;51.442;7.370;2022-09-29T04:41:31;10.43;;;9.33;;
71238;SDS011;61342;51.442;7.370;2022-09-29T04:42:34;11.33;;;9.50;;
71238;SDS011;61342;51.442;7.370;2022-09-29T04:43:35;13.83;;;9.73;;
71238;SDS011;61342;51.442;7.370;2022-09-29T04:44:35;13.93;;;10.23;;
71238;SDS011;61342;51.442;7.370;2022-09-29T04:45:35;10.13;;;8.93;;
71238;SDS011;61342;51.442;7.370;2022-09-29T04:46:36;9.97;;;8.30;;
71238;SDS011;61342;51.442;7.370;2022-09-29T04:47:36;10.70;;;8.93;;
71238;SDS011;61342;51.442;7.370;2022-09-29T04:48:37;10.47;;;9.37;;
71238;SDS011;61342;51.442;7.370;2022-09-29T04:49:37;11.23;;;9.17;;
71238;SDS011;61342;51.442;7.370;2022-09-29T04:50:37;13.50;;;9.33;;
71238;SDS011;61342;51.442;7.370;2022-09-29T04:51:38;17.97;;;11.47;;
71238;SDS011;61342;51.442;7.370;2022-09-29T04:52:40;53.73;;;37.80;;
71238;SDS011;61342;51.442;7.370;2022-09-29T04:53:42;38.30;;;26.57;;
71238;SDS011;61342;51.442;7.370;2022-09-29T04:54:42;31.93;;;23.03;;
71238;SDS011;61342;51.442;7.370;2022-09-29T04:55:46;18.03;;;14.20;;
71238;SDS011;61342;51.442;7.370;2022-09-29T04:56:47;14.97;;;11.70;;
71238;SDS011;61342;51.442;7.370;2022-09-29T04:57:48;12.57;;;11.37;;
71238;SDS011;61342;51.442;7.370;2022-09-29T04:58:48;11.87;;;10.20;;
71238;SDS011;61342;51.442;7.370;2022-09-29T04:59:49;11.87;;;10.37;;
71238;SDS011;61342;51.442;7.370;2022-09-29T05:00:50;13.03;;;10.20;;
71238;SDS011;61342;51.442;7.370;2022-09-29T05:01:51;12.67;;;10.57;;
71238;SDS011;61342;51.442;7.370;2022-09-29T05:02:51;12.70;;;10.90;;
71238;SDS011;61342;51.442;7.370;2022-09-29T05:03:51;11.87;;;10.17;;
71238;SDS011;61342;51.442;7.370;2022-09-29T05:04:52;11.63;;;10.43;;
71238;SDS011;61342;51.442;7.370;2022-09-29T05:05:53;11.63;;;9.90;;
71238;SDS011;61342;51.442;7.370;2022-09-29T05:06:54;11.63;;;9.93;;
71238;SDS011;61342;51.442;7.370;2022-09-29T05:07:54;11.67;;;10.47;;
71238;SDS011;61342;51.442;7.370;2022-09-29T05:08:54;11.87;;;10.33;;
71238;SDS011;61342;51.442;7.370;2022-09-29T05:09:55;10.40;;;9.33;;
71238;SDS011;61342;51.442;7.370;2022-09-29T05:10:55;14.50;;;10.67;;
71238;SDS011;61342;51.442;7.370;2022-09-29T05:11:56;12.13;;;9.90;;
71238;SDS011;61342;51.442;7.370;2022-09-29T05:12:56;11.97;;;10.60;;
71238;SDS011;61342;51.442;7.370;2022-09-29T05:13:57;10.97;;;9.87;;
71238;SDS011;61342;51.442;7.370;2022-09-29T05:14:57;11.43;;;10.23;;
71238;SDS011;61342;51.442;7.370;2022-09-29T05:15:58;14.37;;;10.40;;
71238;SDS011;61342;51.442;7.370;2022-09-29T05:16:58;16.70;;;12.90;;
71238;SDS011;61342;51.442;7.370;2022-09-29T05:18:01;33.50;;;22.90;;
71238;SDS011;61342;51.442;7.370;2022-09-29T05:19:02;65.43;;;42.07;;
71238;SDS011;61342;51.442;7.370;2022-09-29T05:20:02;41.93;;;28.57;;
71238;SDS011;61342;51.442;7.370;2022-09-29T05:21:04;36.93;;;24.63;;
71238;SDS011;61342;51.442;7.370;2022-09-29T05:22:05;25.93;;;18.93;;
71238;SDS011;61342;51.442;7.370;2022-09-29T05:23:05;18.23;;;13.80;;
71238;SDS011;61342;51.442;7.370;2022-09-29T05:24:09;14.00;;;11.60;;
71238;SDS011;61342;51.442;7.370;2022-09-29T05:25:09;13.23;;;11.27;;
71238;SDS011;61342;51.442;7.370;2022-09-29T05:26:10;12.03;;;10.33;;
71238;SDS011;61342;51.442;7.370;2022-09-29T05:27:12;11.90;;;9.53;;
71238;SDS011;61342;51.442;7.370;2022-09-29T05:28:13;11.60;;;8.90;;
71238;SDS011;61342;51.442;7.370;2022-09-29T05:29:16;10.43;;;9.17;;
71238;SDS011;61342;51.442;7.370;2022-09-29T05:30:17;12.33;;;9.07;;
71238;SDS011;61342;51.442;7.370;2022-09-29T05:31:17;9.33;;;8.43;;
71238;SDS011;61342;51.442;7.370;2022-09-29T05:32:17;10.43;;;8.93;;
71238;SDS011;61342;51.442;7.370;2022-09-29T05:33:18;9.80;;;8.53;;
71238;SDS011;61342;51.442;7.370;2022-09-29T05:35:45;10.43;;;9.03;;
71238;SDS011;61342;51.442;7.370;2022-09-29T05:36:51;9.47;;;8.57;;
71238;SDS011;61342;51.442;7.370;2022-09-29T05:37:51;10.03;;;8.93;;
71238;SDS011;61342;51.442;7.370;2022-09-29T05:38:51;10.13;;;9.07;;
71238;SDS011;61342;51.442;7.370;2022-09-29T05:39:52;10.23;;;9.23;;
71238;SDS011;61342;51.442;7.370;2022-09-29T05:40:52;11.20;;;9.00;;
71238;SDS011;61342;51.442;7.370;2022-09-29T05:41:52;9.97;;;8.60;;
71238;SDS011;61342;51.442;7.370;2022-09-29T05:42:53;12.20;;;9.30;;
71238;SDS011;61342;51.442;7.370;2022-09-29T05:43:54;10.47;;;9.27;;
71238;SDS011;61342;51.442;7.370;2022-09-29T05:44:55;9.73;;;8.77;;
71238;SDS011;61342;51.442;7.370;2022-09-29T05:46:02;12.77;;;8.77;;
71238;SDS011;61342;51.442;7.370;2022-09-29T05:47:03;10.67;;;8.93;;
71238;SDS011;61342;51.442;7.370;2022-09-29T05:48:04;11.40;;;9.27;;
71238;SDS011;61342;51.442;7.370;2022-09-29T05:49:04;11.07;;;8.80;;
71238;SDS011;61342;51.442;7.370;2022-09-29T05:50:05;9.63;;;8.37;;
71238;SDS011;61342;51.442;7.370;2022-09-29T05:51:07;10.60;;;9.07;;
71238;SDS011;61342;51.442;7.370;2022-09-29T05:52:09;11.00;;;9.07;;
71238;SDS011;61342;51.442;7.370;2022-09-29T05:53:10;10.63;;;9.30;;
71238;SDS011;61342;51.442;7.370;2022-09-29T05:54:10;11.03;;;9.43;;
71238;SDS011;61342;51.442;7.370;2022-09-29T05:55:10;13.80;;;9.43;;
71238;SDS011;61342;51.442;7.370;2022-09-29T05:56:12;11.00;;;9.53;;
71238;SDS011;61342;51.442;7.370;2022-09-29T05:57:14;14.77;;;11.50;;
71238;SDS011;61342;51.442;7.370;2022-09-29T05:58:15;11.30;;;9.83;;
71238;SDS011;61342;51.442;7.370;2022-09-29T05:59:15;12.77;;;10.23;;
71238;SDS011;61342;51.442;7.370;2022-09-29T06:00:16;12.20;;;10.17;;
71238;SDS011;61342;51.442;7.370;2022-09-29T06:01:17;11.77;;;10.30;;
71238;SDS011;61342;51.442;7.370;2022-09-29T06:02:20;12.97;;;10.30;;
71238;SDS011;61342;51.442;7.370;2022-09-29T06:03:20;10.73;;;9.63;;
71238;SDS011;61342;51.442;7.370;2022-09-29T06:04:21;12.40;;;10.43;;
71238;SDS011;61342;51.442;7.370;2022-09-29T06:05:21;10.57;;;9.30;;
71238;SDS011;61342;51.442;7.370;2022-09-29T06:06:22;12.53;;;9.67;;
71238;SDS011;61342;51.442;7.370;2022-09-29T06:07:25;10.73;;;9.27;;
71238;SDS011;61342;51.442;7.370;2022-09-29T06:08:25;10.90;;;9.77;;
71238;SDS011;61342;51.442;7.370;2022-09-29T06:09:26;12.57;;;10.03;;
71238;SDS011;61342;51.442;7.370;2022-09-29T06:10:26;12.50;;;9.93;;
71238;SDS011;61342;51.442;7.370;2022-09-29T06:11:27;12.70;;;10.07;;
71238;SDS011;61342;51.442;7.370;2022-09-29T06:12:34;11.47;;;10.17;;
71238;SDS011;61342;51.442;7.370;2022-09-29T06:13:42;11.13;;;9.93;;
71238;SDS011;61342;51.442;7.370;2022-09-29T06:14:44;11.40;;;10.10;;
71238;SDS011;61342;51.442;7.370;2022-09-29T06:15:44;14.03;;;10.47;;
71238;SDS011;61342;51.442;7.370;2022-09-29T06:16:45;10.70;;;9.67;;
71238;SDS011;61342;51.442;7.370;2022-09-29T06:17:45;15.27;;;10.23;;
71238;SDS011;61342;51.442;7.370;2022-09-29T06:18:46;14.27;;;10.30;;
71238;SDS011;61342;51.442;7.370;2022-09-29T06:19:47;11.43;;;10.17;;
71238;SDS011;61342;51.442;7.370;2022-09-29T06:20:48;15.17;;;10.83;;
71238;SDS011;61342;51.442;7.370;2022-09-29T06:21:48;12.53;;;10.30;;
71238;SDS011;61342;51.442;7.370;2022-09-29T06:22:53;12.37;;;10.30;;
71238;SDS011;61342;51.442;7.370;2022-09-29T06:23:54;11.40;;;10.20;;
71238;SDS011;61342;51.442;7.370;2022-09-29T06:24:55;14.07;;;10.27;;
71238;SDS011;61342;51.442;7.370;2022-09-29T06:25:56;10.50;;;9.40;;
71238;SDS011;61342;51.442;7.370;2022-09-29T06:26:57;13.60;;;9.60;;
71238;SDS011;61342;51.442;7.370;2022-09-29T06:27:58;11.07;;;9.87;;
71238;SDS011;61342;51.442;7.370;2022-09-29T06:28:58;11.57;;;10.37;;
71238;SDS011;61342;51.442;7.370;2022-09-29T06:29:58;11.67;;;10.47;;
71238;SDS011;61342;51.442;7.370;2022-09-29T06:31:00;12.60;;;10.17;;
71238;SDS011;61342;51.442;7.370;2022-09-29T06:32:05;15.30;;;10.43;;
71238;SDS011;61342;51.442;7.370;2022-09-29T06:33:05;13.70;;;10.73;;
71238;SDS011;61342;51.442;7.370;2022-09-29T06:34:06;12.83;;;10.17;;
71238;SDS011;61342;51.442;7.370;2022-09-29T06:35:08;11.87;;;10.40;;
71238;SDS011;61342;51.442;7.370;2022-09-29T06:36:43;13.53;;;9.80;;
71238;SDS011;61342;51.442;7.370;2022-09-29T06:38:02;11.80;;;9.73;;
71238;SDS011;61342;51.442;7.370;2022-09-29T06:39:04;12.43;;;10.13;;
71238;SDS011;61342;51.442;7.370;2022-09-29T06:40:09;11.90;;;10.10;;
71238;SDS011;61342;51.442;7.370;2022-09-29T06:41:10;11.90;;;10.27;;
71238;SDS011;61342;51.442;7.370;2022-09-29T06:42:10;13.53;;;9.83;;
71238;SDS011;61342;51.442;7.370;2022-09-29T06:43:11;10.63;;;9.40;;